Time;durP1;ratioP1;P1;durP2;ratioP2;P2;SDS_P1;SDS_P2;PMS_P1;PMS_P2;Temp;Humidity;BMP_temperature;BMP_pressure;BME280_temperature;BME280_humidity;BME280_pressure;Samples;Min_cycle;Max_cycle;Signal;HPM_P1;HPM_P2
2023/12/12 00:00:39;;;;;;;1.10;1.00;;;4.20;99.90;;;;;;5114555;28;20047;-75
2023/12/12 00:03:04;;;;;;;1.20;1.10;;;4.10;99.90;;;;;;5114777;28;20035;-73
2023/12/12 00:05:30;;;;;;;1.10;1.00;;;4.20;99.90;;;;;;5114175;28;20042;-75
2023/12/12 00:07:56;;;;;;;1.20;1.10;;;4.10;99.90;;;;;;5114428;28;20499;-73
2023/12/12 00:10:22;;;;;;;1.10;1.00;;;4.10;99.90;;;;;;5114351;28;20387;-72
2023/12/12 00:12:48;;;;;;;0.95;0.90;;;4.10;99.90;;;;;;5114438;28;20031;-75
2023/12/12 00:15:13;;;;;;;1.00;0.93;;;4.10;99.90;;;;;;5114886;28;20058;-73
2023/12/12 00:17:39;;;;;;;1.10;1.00;;;4.00;99.90;;;;;;5114765;28;20055;-74
2023/12/12 00:20:07;;;;;;;1.08;1.00;;;4.00;99.90;;;;;;5114269;28;20035;-72
2023/12/12 00:22:33;;;;;;;1.10;1.00;;;4.00;99.90;;;;;;5114605;28;20483;-76
2023/12/12 00:24:59;;;;;;;0.90;0.90;;;4.00;99.90;;;;;;5114348;28;20044;-75
2023/12/12 00:27:24;;;;;;;1.00;0.95;;;4.00;99.90;;;;;;5114082;28;20144;-74
2023/12/12 00:29:50;;;;;;;1.10;1.00;;;3.90;99.90;;;;;;5114151;28;20128;-76
2023/12/12 00:32:15;;;;;;;1.15;1.05;;;3.90;99.90;;;;;;5114656;28;20038;-74
2023/12/12 00:34:41;;;;;;;1.10;1.00;;;3.90;99.90;;;;;;5114272;28;20039;-75
2023/12/12 00:37:06;;;;;;;1.08;0.98;;;3.90;99.90;;;;;;5114308;28;20352;-72
2023/12/12 00:39:39;;;;;;;1.08;1.00;;;3.90;99.90;;;;;;5114113;28;20039;-74
2023/12/12 00:42:05;;;;;;;1.10;1.00;;;3.90;99.90;;;;;;5114277;28;20047;-74
2023/12/12 00:44:31;;;;;;;0.90;0.90;;;3.80;99.90;;;;;;5114003;28;20127;-75
2023/12/12 00:46:56;;;;;;;0.90;0.90;;;3.80;99.90;;;;;;5114117;28;20436;-73
2023/12/12 00:49:22;;;;;;;1.10;1.00;;;3.80;99.90;;;;;;5114326;28;20035;-73
2023/12/12 00:51:48;;;;;;;1.55;1.45;;;3.80;99.90;;;;;;5114294;28;20036;-74
2023/12/12 00:54:13;;;;;;;1.10;1.00;;;3.80;99.90;;;;;;5113995;28;20043;-73
2023/12/12 00:56:39;;;;;;;1.10;1.00;;;3.80;99.90;;;;;;5113927;28;20035;-72
2023/12/12 00:59:04;;;;;;;1.20;1.10;;;3.70;99.90;;;;;;5113872;28;20039;-75
2023/12/12 01:01:30;;;;;;;1.10;1.00;;;3.70;99.90;;;;;;5112735;28;20032;-72
2023/12/12 01:03:55;;;;;;;1.30;1.20;;;3.70;99.90;;;;;;5114209;28;20046;-73
2023/12/12 01:06:25;;;;;;;1.20;1.10;;;3.70;99.90;;;;;;5114028;28;20032;-72
2023/12/12 01:08:51;;;;;;;1.10;1.00;;;3.60;99.90;;;;;;5114086;28;20394;-73
2023/12/12 01:11:19;;;;;;;1.10;1.00;;;3.60;99.90;;;;;;5113593;28;20044;-75
2023/12/12 01:13:45;;;;;;;;;;;3.60;99.90;;;;;;5112887;28;20085;-73
2023/12/12 01:16:11;;;;;;;1.10;1.00;;;3.60;99.90;;;;;;5115192;28;20255;-75
2023/12/12 01:18:37;;;;;;;1.10;1.00;;;3.60;99.90;;;;;;5117651;28;20043;-73
2023/12/12 01:21:02;;;;;;;1.55;1.45;;;3.50;99.90;;;;;;5117520;28;20085;-73
2023/12/12 01:23:55;;;;;;;1.20;1.10;;;3.50;99.90;;;;;;5117245;28;20043;-75
2023/12/12 01:26:23;;;;;;;1.17;1.08;;;3.50;99.90;;;;;;5117614;28;20050;-76
2023/12/12 01:28:49;;;;;;;1.10;1.00;;;3.50;99.90;;;;;;5117606;27;20043;-74
2023/12/12 01:31:15;;;;;;;1.30;1.20;;;3.40;99.90;;;;;;5117563;28;20036;-72
2023/12/12 01:33:42;;;;;;;1.10;1.00;;;3.40;99.90;;;;;;5117349;28;20039;-74
2023/12/12 01:36:08;;;;;;;1.10;1.00;;;3.40;99.90;;;;;;5117505;27;20048;-75
2023/12/12 01:38:34;;;;;;;1.20;1.10;;;3.40;99.90;;;;;;5117240;27;20495;-74
2023/12/12 01:40:59;;;;;;;1.20;1.10;;;3.40;99.90;;;;;;5117272;28;20043;-73
2023/12/12 01:43:28;;;;;;;1.10;1.00;;;3.30;99.90;;;;;;5117259;28;20049;-74
2023/12/12 01:45:57;;;;;;;1.10;1.00;;;3.30;99.90;;;;;;5117070;28;20054;-74
2023/12/12 01:48:23;;;;;;;1.20;1.10;;;3.30;99.90;;;;;;5117085;28;20077;-75
2023/12/12 01:50:50;;;;;;;1.20;1.10;;;3.30;99.90;;;;;;5117056;28;20457;-73
2023/12/12 01:53:19;;;;;;;1.10;1.00;;;3.30;99.90;;;;;;5116941;28;20099;-76
2023/12/12 01:55:46;;;;;;;1.20;1.10;;;3.20;99.90;;;;;;5117171;28;20420;-74
2023/12/12 01:58:12;;;;;;;;;;;3.20;99.90;;;;;;5117229;28;20031;-73
2023/12/12 02:00:37;;;;;;;1.10;1.00;;;3.20;99.90;;;;;;5116789;28;20022;-74
2023/12/12 02:03:03;;;;;;;1.10;1.00;;;3.20;99.90;;;;;;5116881;28;20032;-72
2023/12/12 02:05:30;;;;;;;1.20;1.10;;;3.20;99.90;;;;;;5116666;28;20074;-75
2023/12/12 02:07:57;;;;;;;1.20;1.10;;;3.10;99.90;;;;;;5116694;28;20127;-74
2023/12/12 02:10:23;;;;;;;1.10;1.00;;;3.10;99.90;;;;;;5116694;28;20043;-74
2023/12/12 02:12:48;;;;;;;1.10;1.00;;;3.10;99.90;;;;;;5115649;28;20099;-75
2023/12/12 02:15:17;;;;;;;1.20;1.10;;;3.10;99.90;;;;;;5116555;28;20130;-74
2023/12/12 02:17:43;;;;;;;0.98;0.93;;;3.00;99.90;;;;;;5116724;28;20051;-72
2023/12/12 02:20:09;;;;;;;1.10;1.00;;;3.00;99.90;;;;;;5116505;28;20122;-72
2023/12/12 02:22:35;;;;;;;1.20;1.10;;;3.00;99.90;;;;;;5116404;28;20085;-73
2023/12/12 02:25:01;;;;;;;1.20;1.10;;;3.00;99.90;;;;;;5116392;28;20078;-72
2023/12/12 02:27:26;;;;;;;1.20;1.10;;;3.00;99.90;;;;;;5115976;28;20031;-76
2023/12/12 02:29:52;;;;;;;1.20;1.10;;;2.90;99.90;;;;;;5116292;28;20043;-74
2023/12/12 02:32:19;;;;;;;1.20;1.10;;;3.00;99.90;;;;;;5116282;28;20046;-73
2023/12/12 02:34:44;;;;;;;1.20;1.10;;;2.90;99.90;;;;;;5116265;28;20050;-71
2023/12/12 02:37:10;;;;;;;1.20;1.10;;;2.90;99.90;;;;;;5116142;28;20039;-73
2023/12/12 02:39:35;;;;;;;1.10;1.00;;;3.60;99.90;;;;;;5116122;28;20122;-73
2023/12/12 02:42:01;;;;;;;1.00;1.00;;;2.90;99.90;;;;;;5116447;28;20046;-74
2023/12/12 02:44:27;;;;;;;1.10;1.00;;;2.90;99.90;;;;;;5116528;28;20028;-77
2023/12/12 02:46:52;;;;;;;1.10;1.00;;;2.90;99.90;;;;;;5116033;28;20482;-74
2023/12/12 02:49:18;;;;;;;1.20;1.10;;;2.80;99.90;;;;;;5115891;28;20062;-75
2023/12/12 02:51:44;;;;;;;1.13;1.02;;;2.80;99.90;;;;;;5115833;28;20044;-72
2023/12/12 02:54:09;;;;;;;1.10;1.00;;;2.80;99.90;;;;;;5115781;27;20119;-74
2023/12/12 02:56:35;;;;;;;1.10;1.00;;;2.80;99.90;;;;;;5115920;28;20040;-74
2023/12/12 02:59:01;;;;;;;1.20;1.10;;;2.80;99.90;;;;;;5115680;28;20515;-74
2023/12/12 03:01:27;;;;;;;1.20;1.10;;;2.80;99.90;;;;;;5115692;28;20371;-74
2023/12/12 03:03:52;;;;;;;1.10;1.00;;;2.80;99.90;;;;;;5115441;28;20383;-72
2023/12/12 03:06:18;;;;;;;1.10;1.00;;;2.70;99.90;;;;;;5115594;28;20039;-74
2023/12/12 03:08:43;;;;;;;1.20;1.10;;;2.70;99.90;;;;;;5115457;28;20052;-72
2023/12/12 03:11:09;;;;;;;1.10;1.00;;;2.70;99.90;;;;;;5114508;28;20054;-72
2023/12/12 03:13:34;;;;;;;1.20;1.10;;;2.70;99.90;;;;;;5115392;27;20475;-71
2023/12/12 03:16:00;;;;;;;1.20;1.10;;;2.70;99.90;;;;;;5115283;28;20048;-75
2023/12/12 03:18:26;;;;;;;1.02;0.95;;;2.70;99.90;;;;;;5115414;28;20538;-72
2023/12/12 03:20:51;;;;;;;1.20;1.10;;;2.70;99.90;;;;;;5114126;28;20041;-72
2023/12/12 03:23:17;;;;;;;1.20;1.10;;;2.60;99.90;;;;;;5115168;28;20350;-75
2023/12/12 03:25:43;;;;;;;1.10;1.00;;;2.60;99.90;;;;;;5115119;28;20039;-71
2023/12/12 03:28:08;;;;;;;1.15;1.05;;;2.60;99.90;;;;;;5115220;28;20094;-73
2023/12/12 03:30:34;;;;;;;1.20;1.10;;;2.60;99.90;;;;;;5115216;28;20100;-72
2023/12/12 03:32:59;;;;;;;1.10;1.00;;;2.60;99.90;;;;;;5115067;28;20047;-73
2023/12/12 03:35:25;;;;;;;1.20;1.10;;;2.60;99.90;;;;;;5115105;28;20044;-76
2023/12/12 03:37:51;;;;;;;1.10;1.00;;;2.60;99.90;;;;;;5114698;28;20463;-74
2023/12/12 03:40:16;;;;;;;1.20;1.10;;;2.50;99.90;;;;;;5114370;28;20043;-75
2023/12/12 03:42:42;;;;;;;1.20;1.10;;;2.50;99.90;;;;;;5114960;28;20114;-75
2023/12/12 03:45:08;;;;;;;1.63;1.52;;;2.50;99.90;;;;;;5114918;28;20380;-72
2023/12/12 03:47:34;;;;;;;1.10;1.00;;;2.50;99.90;;;;;;5113470;28;20042;-75
2023/12/12 03:49:59;;;;;;;1.10;1.00;;;2.40;99.90;;;;;;5114761;28;20043;-75
2023/12/12 03:52:25;;;;;;;1.10;1.00;;;2.50;99.90;;;;;;5114716;28;20050;-74
2023/12/12 03:54:51;;;;;;;1.10;1.00;;;2.40;99.90;;;;;;5114724;28;20127;-74
2023/12/12 03:57:16;;;;;;;1.20;1.10;;;2.40;99.90;;;;;;5114850;28;20471;-71
2023/12/12 03:59:42;;;;;;;1.20;1.10;;;2.40;99.90;;;;;;5114472;28;20044;-72
2023/12/12 04:02:07;;;;;;;1.10;1.00;;;2.40;99.90;;;;;;5114743;28;20043;-74
2023/12/12 04:04:33;;;;;;;1.17;1.08;;;2.40;99.90;;;;;;5114653;28;20042;-73
2023/12/12 04:06:58;;;;;;;1.13;1.02;;;2.30;99.90;;;;;;5114547;28;20084;-71
2023/12/12 04:09:24;;;;;;;1.10;1.00;;;2.30;99.90;;;;;;5114516;28;20378;-74
2023/12/12 04:11:50;;;;;;;1.73;1.63;;;2.30;99.90;;;;;;5114493;28;20040;-72
2023/12/12 04:14:15;;;;;;;1.20;1.10;;;2.30;99.90;;;;;;5114795;28;20031;-74
2023/12/12 04:16:41;;;;;;;1.20;1.10;;;2.30;99.90;;;;;;5114089;28;20433;-75
2023/12/12 04:19:06;;;;;;;1.30;1.20;;;2.30;99.90;;;;;;5114262;28;20042;-71
2023/12/12 04:21:32;;;;;;;1.10;1.00;;;2.30;99.90;;;;;;5114121;28;20040;-74
2023/12/12 04:23:57;;;;;;;1.52;1.42;;;2.30;99.90;;;;;;5114119;28;20050;-72
2023/12/12 04:26:23;;;;;;;1.20;1.10;;;2.30;99.90;;;;;;5112372;28;20122;-73
2023/12/12 04:28:49;;;;;;;1.20;1.10;;;2.30;99.90;;;;;;5112073;28;20044;-75
2023/12/12 04:31:16;;;;;;;1.20;1.10;;;2.30;99.90;;;;;;5111974;28;20043;-73
2023/12/12 04:33:42;;;;;;;1.20;1.10;;;2.30;99.90;;;;;;5112049;28;20062;-71
2023/12/12 04:36:08;;;;;;;1.20;1.10;;;2.30;99.90;;;;;;5112032;28;20028;-73
2023/12/12 04:38:35;;;;;;;1.17;1.08;;;2.30;99.90;;;;;;5111978;28;20115;-74
2023/12/12 04:41:03;;;;;;;1.13;1.02;;;2.30;99.90;;;;;;5113203;28;20074;-73
2023/12/12 04:43:29;;;;;;;1.20;1.10;;;2.30;99.90;;;;;;5114068;28;20043;-71
2023/12/12 04:45:56;;;;;;;1.10;1.00;;;2.30;99.90;;;;;;5114031;28;20035;-74
2023/12/12 04:48:22;;;;;;;1.20;1.10;;;2.40;99.90;;;;;;5113869;28;20036;-72
2023/12/12 04:50:47;;;;;;;1.20;1.10;;;2.40;99.90;;;;;;5116436;28;20042;-73
2023/12/12 04:53:13;;;;;;;1.02;1.00;;;2.40;99.90;;;;;;5118133;28;20027;-74
2023/12/12 04:55:39;;;;;;;1.10;1.00;;;2.40;99.90;;;;;;5118091;28;20092;-72
2023/12/12 04:58:04;;;;;;;1.10;1.00;;;2.40;99.90;;;;;;5117972;28;20032;-70
2023/12/12 05:00:30;;;;;;;1.20;1.10;;;2.40;99.90;;;;;;5117927;28;20126;-73
2023/12/12 05:02:56;;;;;;;1.15;1.05;;;2.40;99.90;;;;;;5117941;28;20034;-74
2023/12/12 05:05:21;;;;;;;1.20;1.10;;;2.40;99.90;;;;;;5117981;28;20043;-73
2023/12/12 05:07:47;;;;;;;1.10;1.00;;;2.40;99.90;;;;;;5117589;28;20038;-73
2023/12/12 05:10:12;;;;;;;1.17;1.08;;;2.40;99.90;;;;;;5117892;28;20040;-72
2023/12/12 05:12:38;;;;;;;1.10;1.00;;;2.40;99.90;;;;;;5118110;28;20074;-74
2023/12/12 05:15:05;;;;;;;1.30;1.20;;;2.40;99.90;;;;;;5117822;28;20035;-73
2023/12/12 05:17:31;;;;;;;1.10;1.00;;;2.40;99.90;;;;;;5117311;28;20036;-73
2023/12/12 05:19:58;;;;;;;1.52;1.42;;;2.40;99.90;;;;;;5117434;28;20043;-73
2023/12/12 05:22:24;;;;;;;2.53;2.20;;;2.40;99.90;;;;;;5117523;28;20039;-71
2023/12/12 05:24:50;;;;;;;1.20;1.10;;;2.40;99.90;;;;;;5117531;28;20474;-73
2023/12/12 05:27:16;;;;;;;1.20;1.10;;;2.40;99.90;;;;;;5117518;28;20043;-74
2023/12/12 05:29:41;;;;;;;1.10;1.00;;;2.40;99.90;;;;;;5117446;28;20522;-75
2023/12/12 05:32:07;;;;;;;1.20;1.10;;;2.50;99.90;;;;;;5117495;28;20421;-72
2023/12/12 05:34:32;;;;;;;1.20;1.10;;;2.50;99.90;;;;;;5117423;28;20057;-72
2023/12/12 05:36:58;;;;;;;1.20;1.10;;;2.50;99.90;;;;;;5117298;27;20048;-71
2023/12/12 05:39:24;;;;;;;1.20;1.10;;;2.50;99.90;;;;;;5117289;28;20051;-74
2023/12/12 05:41:49;;;;;;;1.20;1.10;;;2.50;99.90;;;;;;5117322;28;20367;-71
2023/12/12 05:44:15;;;;;;;1.20;1.10;;;2.60;99.90;;;;;;5117068;28;20035;-70
2023/12/12 05:46:40;;;;;;;1.20;1.10;;;2.60;99.90;;;;;;5117181;27;20047;-75
2023/12/12 05:49:09;;;;;;;1.20;1.10;;;2.60;99.90;;;;;;5117065;28;20085;-75
2023/12/12 05:51:37;;;;;;;0.93;0.93;;;2.60;99.90;;;;;;5117023;28;20052;-72
2023/12/12 05:54:03;;;;;;;1.15;1.05;;;2.60;99.90;;;;;;5116983;28;20036;-71
2023/12/12 05:56:29;;;;;;;1.20;1.10;;;2.70;99.90;;;;;;5116951;28;20177;-71
2023/12/12 05:58:55;;;;;;;1.25;1.15;;;2.70;99.90;;;;;;5116945;28;20044;-71
2023/12/12 06:01:21;;;;;;;1.10;1.00;;;2.80;99.90;;;;;;5116309;27;20047;-74
2023/12/12 06:03:46;;;;;;;1.20;1.10;;;2.80;99.90;;;;;;5105244;28;20129;-71
2023/12/12 06:06:12;;;;;;;1.10;1.00;;;2.90;99.90;;;;;;5096343;28;20325;-73
2023/12/12 06:08:38;;;;;;;1.10;1.00;;;2.90;99.90;;;;;;5096414;28;20044;-73
2023/12/12 06:11:04;;;;;;;1.17;1.08;;;2.90;99.90;;;;;;5096237;28;20044;-74
2023/12/12 06:13:29;;;;;;;1.10;1.00;;;3.00;99.90;;;;;;5096020;28;20028;-74
2023/12/12 06:15:56;;;;;;;1.10;1.00;;;3.00;99.90;;;;;;5096307;28;20055;-72
2023/12/12 06:18:23;;;;;;;1.10;1.00;;;3.10;99.90;;;;;;5096024;28;20119;-74
2023/12/12 06:20:48;;;;;;;1.20;1.10;;;3.10;99.90;;;;;;5096060;28;20127;-74
2023/12/12 06:23:14;;;;;;;1.00;1.00;;;3.10;99.90;;;;;;5096554;28;20118;-75
2023/12/12 06:25:39;;;;;;;1.20;1.10;;;3.20;99.90;;;;;;5096399;28;20036;-75
2023/12/12 06:28:05;;;;;;;1.10;1.00;;;3.20;99.90;;;;;;5095977;28;20101;-75
2023/12/12 06:30:31;;;;;;;1.20;1.10;;;3.30;99.90;;;;;;5095944;28;20127;-73
2023/12/12 06:32:56;;;;;;;1.20;1.10;;;3.30;99.90;;;;;;5095560;28;20119;-72
2023/12/12 06:35:25;;;;;;;1.13;1.02;;;3.30;99.90;;;;;;5095790;28;20036;-74
2023/12/12 06:37:51;;;;;;;1.10;1.00;;;3.40;99.90;;;;;;5096167;28;20040;-73
2023/12/12 06:40:17;;;;;;;1.10;1.00;;;3.40;99.90;;;;;;5095604;28;20379;-75
2023/12/12 06:42:44;;;;;;;1.10;1.00;;;3.40;99.90;;;;;;5095355;28;20028;-73
2023/12/12 06:45:10;;;;;;;1.05;1.00;;;3.50;99.90;;;;;;5095590;28;20036;-71
2023/12/12 06:47:36;;;;;;;1.08;0.98;;;3.50;99.90;;;;;;5095561;28;20089;-73
2023/12/12 06:50:05;;;;;;;1.10;1.00;;;3.50;99.90;;;;;;5095250;28;20047;-72
2023/12/12 06:52:32;;;;;;;1.40;1.30;;;3.50;99.90;;;;;;5095496;28;20131;-75
2023/12/12 06:54:57;;;;;;;1.13;1.02;;;3.60;99.90;;;;;;5095444;28;20126;-73
2023/12/12 06:57:23;;;;;;;1.20;1.10;;;3.60;99.90;;;;;;5095379;28;20555;-75
2023/12/12 06:59:49;;;;;;;1.10;1.00;;;3.60;99.90;;;;;;5095531;28;20093;-74
2023/12/12 07:02:14;;;;;;;1.52;1.42;;;3.60;99.90;;;;;;5095292;28;20072;-72
2023/12/12 07:04:40;;;;;;;1.10;1.00;;;3.70;99.90;;;;;;5095227;28;20460;-75
2023/12/12 07:07:05;;;;;;;1.10;1.00;;;3.70;99.90;;;;;;5095568;28;20100;-75
2023/12/12 07:09:31;;;;;;;1.10;1.00;;;3.70;99.90;;;;;;5095129;28;20044;-71
2023/12/12 07:11:57;;;;;;;1.10;1.00;;;3.80;99.90;;;;;;5095011;28;20039;-72
2023/12/12 07:14:22;;;;;;;0.98;0.93;;;3.80;99.90;;;;;;5095019;28;20036;-72
2023/12/12 07:16:48;;;;;;;1.10;1.00;;;4.40;99.90;;;;;;5095079;28;20052;-72
2023/12/12 07:19:13;;;;;;;1.10;1.00;;;3.80;99.90;;;;;;5094576;28;20120;-77
2023/12/12 07:21:41;;;;;;;1.20;1.10;;;3.80;99.90;;;;;;5094843;28;20040;-73
2023/12/12 07:24:07;;;;;;;1.10;1.00;;;3.80;99.90;;;;;;5094678;28;20039;-72
2023/12/12 07:26:33;;;;;;;1.07;1.00;;;3.80;99.90;;;;;;5093389;28;20042;-73
2023/12/12 07:28:59;;;;;;;0.93;0.90;;;3.80;99.90;;;;;;5094686;28;20277;-72
2023/12/12 07:31:25;;;;;;;1.10;1.00;;;3.80;99.90;;;;;;5094817;28;20036;-73
2023/12/12 07:33:51;;;;;;;1.27;1.17;;;3.80;99.90;;;;;;5095011;28;20044;-73
2023/12/12 07:36:16;;;;;;;1.17;1.08;;;3.80;99.90;;;;;;5094544;28;20036;-73
2023/12/12 07:38:42;;;;;;;2.67;2.15;;;3.80;99.90;;;;;;5094278;28;20119;-72
2023/12/12 07:41:09;;;;;;;1.20;1.10;;;3.80;99.90;;;;;;5094537;28;20040;-74
2023/12/12 07:43:34;;;;;;;1.08;0.98;;;3.80;99.90;;;;;;5095045;28;20048;-74
2023/12/12 07:46:00;;;;;;;1.08;1.00;;;3.80;99.90;;;;;;5094565;28;20040;-75
2023/12/12 07:48:25;;;;;;;1.10;1.00;;;4.00;99.90;;;;;;5094378;28;20094;-72
2023/12/12 07:50:51;;;;;;;1.10;1.00;;;3.70;99.90;;;;;;5094290;28;20042;-74
2023/12/12 07:53:17;;;;;;;0.90;0.90;;;3.70;99.90;;;;;;5094335;28;20047;-75
2023/12/12 07:55:43;;;;;;;1.20;1.10;;;3.70;99.90;;;;;;5094764;28;20036;-72
2023/12/12 07:58:09;;;;;;;0.90;0.90;;;3.70;99.90;;;;;;5094164;28;20294;-73
2023/12/12 08:00:34;;;;;;;1.10;1.00;;;3.70;99.90;;;;;;5094194;28;20036;-74
2023/12/12 08:03:00;;;;;;;1.00;1.00;;;3.70;99.90;;;;;;5093995;28;20066;-74
2023/12/12 08:05:26;;;;;;;1.10;1.00;;;3.70;99.90;;;;;;5094174;28;20043;-72
2023/12/12 08:07:52;;;;;;;1.10;1.00;;;3.70;99.90;;;;;;5094148;28;20047;-72
2023/12/12 08:10:18;;;;;;;1.80;1.70;;;3.80;99.90;;;;;;5094103;28;20028;-73
2023/12/12 08:12:43;;;;;;;0.90;0.90;;;3.80;99.90;;;;;;5094061;28;20476;-72
2023/12/12 08:15:09;;;;;;;0.95;0.95;;;3.70;99.90;;;;;;5093847;28;20032;-72
2023/12/12 08:17:35;;;;;;;1.10;1.00;;;3.70;99.90;;;;;;5093775;28;20052;-74
2023/12/12 08:20:00;;;;;;;1.10;1.00;;;3.70;99.90;;;;;;5093916;28;20032;-75
2023/12/12 08:22:26;;;;;;;1.20;1.10;;;3.70;99.90;;;;;;5093947;28;20432;-75
2023/12/12 08:24:54;;;;;;;1.10;1.00;;;3.70;99.90;;;;;;5093481;28;20044;-73
2023/12/12 08:27:20;;;;;;;1.17;1.08;;;3.70;99.90;;;;;;5093718;28;20044;-74
2023/12/12 08:29:47;;;;;;;1.10;1.00;;;3.70;99.90;;;;;;5094034;28;20032;-74
2023/12/12 08:32:13;;;;;;;1.33;1.10;;;3.70;99.90;;;;;;5093792;28;20079;-72
2023/12/12 08:34:38;;;;;;;1.20;1.10;;;3.70;99.90;;;;;;5093659;28;20079;-71
2023/12/12 08:37:04;;;;;;;1.10;1.00;;;3.70;99.90;;;;;;5093731;28;20040;-75
2023/12/12 08:39:31;;;;;;;1.10;1.00;;;3.70;99.90;;;;;;5093678;28;20482;-76
2023/12/12 08:41:57;;;;;;;;;;;3.80;99.90;;;;;;5094113;28;20502;-72
2023/12/12 08:44:23;;;;;;;1.10;1.00;;;3.80;99.90;;;;;;5093821;28;19916;-76
2023/12/12 08:46:49;;;;;;;5.00;2.00;;;3.80;99.90;;;;;;5093727;28;20044;-76
2023/12/12 08:49:17;;;;;;;1.20;1.10;;;3.80;99.90;;;;;;5093617;28;20048;-75
2023/12/12 08:51:43;;;;;;;1.10;1.00;;;3.80;99.90;;;;;;5093610;28;20426;-73
2023/12/12 08:54:09;;;;;;;1.10;1.00;;;3.80;99.90;;;;;;5093631;28;20043;-74
2023/12/12 08:56:36;;;;;;;1.20;1.10;;;3.90;99.90;;;;;;5093880;28;20043;-75
2023/12/12 08:59:02;;;;;;;1.10;1.00;;;3.90;99.90;;;;;;5093746;28;20063;-76
2023/12/12 09:01:29;;;;;;;1.10;1.00;;;3.90;99.90;;;;;;5093530;28;20460;-76
2023/12/12 09:03:54;;;;;;;1.10;1.00;;;4.00;99.90;;;;;;5093495;28;20032;-75
2023/12/12 09:06:20;;;;;;;1.10;1.00;;;4.00;99.90;;;;;;5093328;28;20042;-76
2023/12/12 09:08:46;;;;;;;1.05;0.95;;;4.00;99.90;;;;;;5093533;28;20081;-74
2023/12/12 09:11:12;;;;;;;1.10;1.00;;;4.10;99.90;;;;;;5093530;28;20122;-73
2023/12/12 09:13:40;;;;;;;1.10;1.00;;;4.10;99.90;;;;;;5093313;28;20089;-77
2023/12/12 09:16:06;;;;;;;2.55;2.35;;;4.20;99.90;;;;;;5093115;28;20460;-74
2023/12/12 09:18:31;;;;;;;1.00;1.00;;;4.30;99.90;;;;;;5093256;28;20043;-75
2023/12/12 09:20:57;;;;;;;1.30;1.20;;;4.30;99.90;;;;;;5093925;28;20453;-74
2023/12/12 09:23:27;;;;;;;1.20;1.10;;;4.40;99.90;;;;;;5093402;28;20115;-74
2023/12/12 09:25:53;;;;;;;1.10;1.00;;;4.70;99.90;;;;;;5093708;28;20379;-77
2023/12/12 09:28:19;;;;;;;1.73;1.63;;;4.60;99.90;;;;;;5093518;28;20051;-75
2023/12/12 09:30:44;;;;;;;1.23;1.13;;;4.70;99.90;;;;;;5093351;28;20143;-72
2023/12/12 09:33:10;;;;;;;1.10;1.00;;;4.70;99.90;;;;;;5093239;28;20036;-73
2023/12/12 09:35:36;;;;;;;1.70;1.60;;;4.80;99.90;;;;;;5092030;28;20456;-75
2023/12/12 09:38:02;;;;;;;1.10;1.00;;;4.80;99.90;;;;;;5095789;28;20047;-75
2023/12/12 09:40:28;;;;;;;1.10;1.00;;;4.80;99.90;;;;;;5097154;28;20458;-73
2023/12/12 09:42:54;;;;;;;2.70;2.50;;;4.90;99.90;;;;;;5096901;28;20082;-78
2023/12/12 09:45:22;;;;;;;1.53;1.43;;;4.90;99.90;;;;;;5097024;28;20055;-73
2023/12/12 09:47:49;;;;;;;0.90;0.90;;;4.90;99.90;;;;;;5096689;28;20124;-73
2023/12/12 09:50:14;;;;;;;1.33;1.23;;;4.90;99.90;;;;;;5096790;28;20114;-73
2023/12/12 09:52:42;;;;;;;1.30;1.20;;;4.90;99.90;;;;;;5096734;28;20427;-74
2023/12/12 09:55:08;;;;;;;;;;;4.90;99.90;;;;;;5096958;28;20480;-74
2023/12/12 09:57:33;;;;;;;0.90;0.90;;;4.90;99.90;;;;;;5096678;28;19959;-71
2023/12/12 10:00:00;;;;;;;0.85;0.85;;;4.90;99.90;;;;;;5096469;28;20067;-73
2023/12/12 10:02:34;;;;;;;0.90;0.90;;;4.90;99.90;;;;;;5096456;28;20062;-75
2023/12/12 10:05:00;;;;;;;4.25;3.83;;;4.90;99.90;;;;;;5096474;28;20039;-74
2023/12/12 10:07:27;;;;;;;1.02;1.00;;;4.90;99.90;;;;;;5096408;28;20046;-75
2023/12/12 10:09:53;;;;;;;1.05;0.90;;;4.80;99.90;;;;;;5096290;28;20057;-74
2023/12/12 10:12:19;;;;;;;1.23;1.00;;;5.90;99.90;;;;;;5096193;28;20044;-74
2023/12/12 10:14:45;;;;;;;2.47;2.28;;;4.80;99.90;;;;;;5096239;28;20135;-76
2023/12/12 10:17:14;;;;;;;1.10;1.00;;;4.80;99.90;;;;;;5096115;28;20048;-76
2023/12/12 10:19:41;;;;;;;1.00;0.98;;;4.80;99.90;;;;;;5096080;28;20048;-77
2023/12/12 10:22:08;;;;;;;1.30;1.20;;;4.80;99.90;;;;;;5095090;28;20052;-73
2023/12/12 10:24:35;;;;;;;1.98;1.42;;;4.80;99.90;;;;;;5096029;28;20089;-74
2023/12/12 10:27:01;;;;;;;;;;;4.80;99.90;;;;;;5096435;28;20040;-73
2023/12/12 10:29:27;;;;;;;1.10;1.00;;;4.90;99.90;;;;;;5096016;28;19916;-72
2023/12/12 10:31:53;;;;;;;1.40;1.30;;;4.90;99.90;;;;;;5095823;28;20379;-75
2023/12/12 10:34:23;;;;;;;1.40;1.30;;;5.00;99.90;;;;;;5095885;28;20119;-75
2023/12/12 10:36:48;;;;;;;1.00;0.90;;;5.00;99.90;;;;;;5096147;28;20410;-74
2023/12/12 10:39:15;;;;;;;1.33;1.23;;;5.10;99.90;;;;;;5095685;28;20032;-74
2023/12/12 10:41:57;;;;;;;1.00;1.00;;;5.10;99.90;;;;;;5095789;28;20044;-76
2023/12/12 10:44:31;;;;;;;1.10;1.08;;;5.10;99.90;;;;;;5095564;28;20173;-75
2023/12/12 10:47:00;;;;;;;1.30;1.17;;;5.20;99.90;;;;;;5095691;28;20079;-76
2023/12/12 10:49:31;;;;;;;1.58;1.48;;;5.20;99.90;;;;;;5095176;28;20044;-72
2023/12/12 10:51:58;;;;;;;1.90;1.58;;;5.20;99.90;;;;;;5095262;28;20468;-75
2023/12/12 10:54:26;;;;;;;1.20;1.10;;;5.20;99.90;;;;;;5095479;28;20187;-74
2023/12/12 10:56:53;;;;;;;1.38;1.27;;;5.30;99.90;;;;;;5095340;28;20044;-74
2023/12/12 10:59:18;;;;;;;;;;;5.40;99.90;;;;;;5095714;28;20046;-73
2023/12/12 11:01:48;;;;;;;1.10;1.00;;;5.40;99.90;;;;;;5095105;28;19916;-72
2023/12/12 11:04:17;;;;;;;2.45;2.00;;;5.50;99.90;;;;;;5095281;28;20028;-75
2023/12/12 11:06:43;;;;;;;1.20;1.00;;;5.50;99.90;;;;;;5095448;28;20126;-74
2023/12/12 11:09:10;;;;;;;0.90;0.90;;;5.60;99.90;;;;;;5095214;28;20403;-75
2023/12/12 11:11:44;;;;;;;1.52;1.42;;;5.60;99.90;;;;;;5094842;28;20484;-72
2023/12/12 11:14:11;;;;;;;0.90;0.90;;;5.70;99.90;;;;;;5094806;28;20490;-73
2023/12/12 11:16:37;;;;;;;1.05;1.00;;;5.70;99.90;;;;;;5095052;28;20173;-72
2023/12/12 11:19:03;;;;;;;1.52;1.42;;;5.80;99.90;;;;;;5094924;28;20472;-75
2023/12/12 11:21:44;;;;;;;0.90;0.90;;;5.80;99.90;;;;;;5093767;28;20039;-73
2023/12/12 11:24:11;;;;;;;1.02;0.98;;;5.80;99.90;;;;;;5095284;28;20040;-77
2023/12/12 11:26:38;;;;;;;1.45;1.35;;;5.80;99.90;;;;;;5094859;28;20036;-74
2023/12/12 11:29:06;;;;;;;1.30;1.20;;;5.90;99.90;;;;;;5094785;28;20032;-76
2023/12/12 11:31:36;;;;;;;1.85;1.45;;;5.90;99.90;;;;;;5094673;28;20100;-75
2023/12/12 11:34:10;;;;;;;1.20;1.10;;;5.90;99.90;;;;;;5094696;28;20044;-75
2023/12/12 11:36:51;;;;;;;1.23;1.13;;;5.90;99.90;;;;;;5094697;28;20048;-77
2023/12/12 11:39:36;;;;;;;1.38;1.27;;;5.90;99.90;;;;;;5094783;28;20086;-75
2023/12/12 11:42:03;;;;;;;0.90;0.90;;;6.00;99.90;;;;;;5094714;28;20433;-76
2023/12/12 11:44:41;;;;;;;;;;;6.00;99.90;;;;;;5095250;28;20071;-74
2023/12/12 11:47:14;;;;;;;1.00;1.00;;;6.00;99.90;;;;;;5093236;28;19969;-74
2023/12/12 11:49:41;;;;;;;0.90;0.90;;;6.00;99.90;;;;;;5094335;28;20092;-74
2023/12/12 11:52:07;;;;;;;1.73;1.63;;;6.00;99.90;;;;;;5094522;28;20032;-72
2023/12/12 11:54:33;;;;;;;2.78;2.20;;;6.10;99.90;;;;;;5094256;28;20045;-72
2023/12/12 11:57:00;;;;;;;2.30;2.17;;;6.10;99.90;;;;;;5094246;28;20499;-74
2023/12/12 11:59:27;;;;;;;1.38;1.27;;;6.10;99.90;;;;;;5093464;28;20289;-74
2023/12/12 12:01:54;;;;;;;1.27;1.17;;;6.10;99.90;;;;;;5094148;28;20040;-72
2023/12/12 12:04:21;;;;;;;2.28;2.17;;;6.30;99.90;;;;;;5093865;28;20524;-70
2023/12/12 12:06:48;;;;;;;1.52;1.15;;;6.20;99.90;;;;;;5094147;28;20085;-73
2023/12/12 12:09:16;;;;;;;1.58;1.48;;;6.20;99.90;;;;;;5094113;28;20119;-73
2023/12/12 12:11:48;;;;;;;2.15;1.45;;;6.20;99.90;;;;;;5094117;28;20036;-76
2023/12/12 12:14:16;;;;;;;1.92;1.75;;;6.30;99.90;;;;;;5094083;28;20040;-76
2023/12/12 12:16:42;;;;;;;2.88;2.15;;;6.70;99.90;;;;;;5093945;28;20052;-76
2023/12/12 12:19:29;;;;;;;1.52;1.42;;;6.30;99.90;;;;;;5094567;28;20075;-74
2023/12/12 12:21:55;;;;;;;1.65;1.55;;;6.40;99.90;;;;;;5093967;28;20085;-76
2023/12/12 12:24:22;;;;;;;1.58;1.48;;;6.40;99.90;;;;;;5093868;28;20040;-74
2023/12/12 12:26:48;;;;;;;3.20;2.53;;;7.20;99.90;;;;;;5092562;28;20387;-75
2023/12/12 12:29:14;;;;;;;1.88;1.45;;;6.50;99.90;;;;;;5093807;28;20126;-71
2023/12/12 12:31:39;;;;;;;2.15;2.05;;;6.40;99.90;;;;;;5093698;28;20455;-71
2023/12/12 12:34:21;;;;;;;1.45;1.25;;;6.50;99.90;;;;;;5093839;28;20042;-72
2023/12/12 12:36:47;;;;;;;2.25;1.67;;;6.50;99.90;;;;;;5093710;28;20039;-73
2023/12/12 12:39:14;;;;;;;2.00;1.90;;;6.50;99.90;;;;;;5093606;28;20123;-73
2023/12/12 12:41:43;;;;;;;1.55;1.45;;;6.50;99.90;;;;;;5093581;28;20039;-77
2023/12/12 12:44:10;;;;;;;1.83;1.73;;;6.60;99.90;;;;;;5093698;28;20055;-73
2023/12/12 12:46:36;;;;;;;2.35;1.92;;;6.50;99.90;;;;;;5093945;28;20040;-71
2023/12/12 12:49:03;;;;;;;2.50;2.30;;;6.60;99.90;;;;;;5093818;28;20032;-76
2023/12/12 12:51:29;;;;;;;6.63;2.95;;;6.60;99.90;;;;;;5093751;28;20044;-72
2023/12/12 12:53:55;;;;;;;4.00;2.40;;;6.60;99.90;;;;;;5093457;28;20040;-70